Celestyal Olympia — 9HA3027 — position and weather

sailwx.info

Track history (hours):
 
Tides and Currents Weather Stations Pressure Air Temp Water Temp Dewpoint Dewpoint Depression Visibility Wind Speed Wind Dir Waves Ship Positions

Celestyal Olympia

Last reported at 2018-Jun-18 22:09 UTC. Time now 2018-Jun-19 18:24 UTC.
Position N 37°28' E 025°56'.

Length 215 m; draft 7 m.

Type: Passenger vessel. MMSI: 229051000.

Date/timePositionNaut miles runAvg speedWind from/ knotsBaromVisibWave heightAir tempDewpointWater temp
2018-Jun-18 22:09N 37°28' E 025°56'214.9
2018-Jun-18 22:00N 37°28' E 025°53'915.0
2018-Jun-18 21:26N 37°29' E 025°42'615.3
2018-Jun-18 21:00N 37°30' E 025°34'915.3
2018-Jun-18 20:25N 37°31' E 025°23'410.7
2018-Jun-18 20:00N 37°28' E 025°18'1 2.3
2018-Jun-18 19:30N 37°27' E 025°19'0 0.0
2018-Jun-18 18:54N 37°27' E 025°19'0 0.0
2018-Jun-18 18:30N 37°27' E 025°19'0 0.0
2018-Jun-18 18:00N 37°27' E 025°19'0 0.0
2018-Jun-18 17:30N 37°27' E 025°19'0 0.0
2018-Jun-18 16:53N 37°27' E 025°19'0 0.0
2018-Jun-18 16:29N 37°27' E 025°19'0 0.0
2018-Jun-18 15:53N 37°27' E 025°19'0 1.1
2018-Jun-18 15:30N 37°27' E 025°19'714.2
2018-Jun-18 15:00N 37°29' E 025°10'1015.4
2018-Jun-18 14:21N 37°32' E 024°58'514.8
2018-Jun-18 13:59N 37°33' E 024°51'4514.7
2018-Jun-18 10:54N 37°36' E 023°54'615.4
2018-Jun-18 10:30N 37°38' E 023°47'714.2
2018-Jun-18 10:00N 37°43' E 023°41'815.2
2018-Jun-18 09:30N 37°50' E 023°37'612.7
2018-Jun-18 09:00N 37°56' E 023°38'0 0.6
2018-Jun-18 08:30N 37°56' E 023°38'0 0.0
2018-Jun-18 08:00N 37°56' E 023°38'0 0.0
2018-Jun-18 07:30N 37°56' E 023°38'0 0.0
2018-Jun-18 06:18N 37°56' E 023°38'0 0.0
2018-Jun-18 06:00N 37°56' E 023°38'0 0.0
2018-Jun-18 05:30N 37°56' E 023°38'0 0.0
2018-Jun-18 05:00N 37°56' E 023°38'0 0.0
2018-Jun-18 04:30N 37°56' E 023°38'0 0.0
2018-Jun-18 04:01N 37°56' E 023°38'2 3.1
2018-Jun-18 03:31N 37°56' E 023°36'611.4
2018-Jun-18 03:00N 37°50' E 023°39'815.1
2018-Jun-18 02:30N 37°44' E 023°44'815.1
2018-Jun-18 01:59N 37°37' E 023°50'100 1.9
2018-Jun-15 22:18N 37°28' E 025°56'515.7
2018-Jun-15 21:59N 37°29' E 025°49'916.0
2018-Jun-15 21:27N 37°30' E 025°39'715.8
2018-Jun-15 21:00N 37°30' E 025°30'815.7
2018-Jun-15 20:30N 37°31' E 025°20'3 5.3
2018-Jun-15 19:59N 37°28' E 025°19'0 0.0
2018-Jun-15 19:29N 37°28' E 025°19'0 0.0
2018-Jun-15 18:59N 37°28' E 025°19'0 0.0
2018-Jun-15 18:26N 37°28' E 025°19'0 0.0
2018-Jun-15 17:59N 37°28' E 025°19'0 0.0
2018-Jun-15 17:26N 37°28' E 025°19'0 0.0
2018-Jun-15 16:59N 37°28' E 025°19'0 0.0
2018-Jun-15 16:29N 37°28' E 025°19'0 0.0
2018-Jun-15 15:59N 37°28' E 025°19'1 1.9
2018-Jun-15 15:28N 37°27' E 025°18'715.2
2018-Jun-15 15:00N 37°29' E 025°10'1015.6
2018-Jun-15 14:23N 37°31' E 024°58'615.4
2018-Jun-15 14:00N 37°32' E 024°51'4514.9
2018-Jun-15 10:58N 37°37' E 023°54'715.0
2018-Jun-15 10:30N 37°39' E 023°45'713.7
2018-Jun-15 10:00N 37°44' E 023°40'714.2
2018-Jun-15 09:30N 37°51' E 023°37'611.9
2018-Jun-15 09:01N 37°56' E 023°38'0 0.4
2018-Jun-15 08:29N 37°56' E 023°38'0 0.0
2018-Jun-15 07:59N 37°56' E 023°38'0 0.0
2018-Jun-15 07:29N 37°56' E 023°38'0 0.0
2018-Jun-15 06:59N 37°56' E 023°38'0 0.0
2018-Jun-15 06:23N 37°56' E 023°38'0 0.0
2018-Jun-15 05:59N 37°56' E 023°38'0 0.0
2018-Jun-15 05:29N 37°56' E 023°38'0 0.0
2018-Jun-15 04:59N 37°56' E 023°38'0 0.0
2018-Jun-15 04:29N 37°56' E 023°38'0 0.0
2018-Jun-15 03:59N 37°56' E 023°38'2 3.5
2018-Jun-15 03:31N 37°55' E 023°37'714.9
2018-Jun-15 03:00N 37°48' E 023°41'815.1
2018-Jun-15 02:30N 37°42' E 023°45'  
2018-Jun-11 21:55N 37°27' E 025°56'614.4
2018-Jun-11 21:31N 37°29' E 025°48'815.0
2018-Jun-11 21:00N 37°29' E 025°39'815.6
2018-Jun-11 20:31N 37°30' E 025°29'814.9
2018-Jun-11 19:57N 37°30' E 025°18'2 4.6
2018-Jun-11 19:29N 37°28' E 025°19'0 0.0
2018-Jun-11 18:59N 37°28' E 025°19'0 0.0
2018-Jun-11 18:26N 37°28' E 025°19'0 0.0
2018-Jun-11 17:59N 37°28' E 025°19'0 0.0
2018-Jun-11 17:29N 37°28' E 025°19'0 0.0
2018-Jun-11 16:59N 37°28' E 025°19'0 0.0
2018-Jun-11 16:29N 37°28' E 025°19'0 0.0
2018-Jun-11 15:59N 37°28' E 025°19'1 1.1
2018-Jun-11 15:30N 37°28' E 025°19'713.7
2018-Jun-11 15:00N 37°29' E 025°10'1014.5
2018-Jun-11 14:19N 37°31' E 024°58'614.4
2018-Jun-11 13:54N 37°32' E 024°51'4613.8
2018-Jun-11 10:34N 37°37' E 023°53'115.0
2018-Jun-11 10:30N 37°37' E 023°52'815.1
2018-Jun-11 10:01N 37°40' E 023°43'815.8
2018-Jun-11 09:31N 37°47' E 023°39'815.2
2018-Jun-11 09:00N 37°54' E 023°37'2 4.2
2018-Jun-11 08:28N 37°56' E 023°38'0 0.0
2018-Jun-11 07:58N 37°56' E 023°38'0 0.0
2018-Jun-11 07:28N 37°56' E 023°38'0 0.0
2018-Jun-11 06:58N 37°56' E 023°38'0 0.0
2018-Jun-11 06:28N 37°56' E 023°38'0 0.0
2018-Jun-11 05:58N 37°56' E 023°38'0 0.0
2018-Jun-11 05:28N 37°56' E 023°38'0 0.0
2018-Jun-11 04:58N 37°56' E 023°38'0 0.0
2018-Jun-11 04:28N 37°56' E 023°38'1 1.2
2018-Jun-11 04:00N 37°56' E 023°37'510.9
2018-Jun-11 03:30N 37°51' E 023°39'714.2
2018-Jun-11 03:00N 37°45' E 023°43'714.2
2018-Jun-11 02:31N 37°39' E 023°48'814.8
2018-Jun-11 02:00N 37°33' E 023°54'96 1.9
2018-Jun-08 22:23N 37°28' E 025°55'  
Track history (hours):
 
Tides and Currents Weather Stations Pressure Air Temp Water Temp Dewpoint Dewpoint Depression Visibility Wind Speed Wind Dir Waves Ship Positions

Celestyal Olympia

Last reported at 2018-Jun-18 22:09 UTC. Time now 2018-Jun-19 18:24 UTC.
Position N 37°28' E 025°56'.

Length 215 m; draft 7 m.

Type: Passenger vessel. MMSI: 229051000.

Date/timePositionNaut miles runAvg speedWind from/ knotsBaromVisibWave heightAir tempDewpointWater temp
2018-Jun-18 22:09N 37°28' E 025°56'214.9
2018-Jun-18 22:00N 37°28' E 025°53'915.0
2018-Jun-18 21:26N 37°29' E 025°42'615.3
2018-Jun-18 21:00N 37°30' E 025°34'915.3
2018-Jun-18 20:25N 37°31' E 025°23'410.7
2018-Jun-18 20:00N 37°28' E 025°18'1 2.3
2018-Jun-18 19:30N 37°27' E 025°19'0 0.0
2018-Jun-18 18:54N 37°27' E 025°19'0 0.0
2018-Jun-18 18:30N 37°27' E 025°19'0 0.0
2018-Jun-18 18:00N 37°27' E 025°19'0 0.0
2018-Jun-18 17:30N 37°27' E 025°19'0 0.0
2018-Jun-18 16:53N 37°27' E 025°19'0 0.0
2018-Jun-18 16:29N 37°27' E 025°19'0 0.0
2018-Jun-18 15:53N 37°27' E 025°19'0 1.1
2018-Jun-18 15:30N 37°27' E 025°19'714.2
2018-Jun-18 15:00N 37°29' E 025°10'1015.4
2018-Jun-18 14:21N 37°32' E 024°58'514.8
2018-Jun-18 13:59N 37°33' E 024°51'4514.7
2018-Jun-18 10:54N 37°36' E 023°54'615.4
2018-Jun-18 10:30N 37°38' E 023°47'714.2
2018-Jun-18 10:00N 37°43' E 023°41'815.2
2018-Jun-18 09:30N 37°50' E 023°37'612.7
2018-Jun-18 09:00N 37°56' E 023°38'0 0.6
2018-Jun-18 08:30N 37°56' E 023°38'0 0.0
2018-Jun-18 08:00N 37°56' E 023°38'0 0.0
2018-Jun-18 07:30N 37°56' E 023°38'0 0.0
2018-Jun-18 06:18N 37°56' E 023°38'0 0.0
2018-Jun-18 06:00N 37°56' E 023°38'0 0.0
2018-Jun-18 05:30N 37°56' E 023°38'0 0.0
2018-Jun-18 05:00N 37°56' E 023°38'0 0.0
2018-Jun-18 04:30N 37°56' E 023°38'0 0.0
2018-Jun-18 04:01N 37°56' E 023°38'2 3.1
2018-Jun-18 03:31N 37°56' E 023°36'611.4
2018-Jun-18 03:00N 37°50' E 023°39'815.1
2018-Jun-18 02:30N 37°44' E 023°44'815.1
2018-Jun-18 01:59N 37°37' E 023°50'100 1.9
2018-Jun-15 22:18N 37°28' E 025°56'515.7
2018-Jun-15 21:59N 37°29' E 025°49'916.0
2018-Jun-15 21:27N 37°30' E 025°39'715.8
2018-Jun-15 21:00N 37°30' E 025°30'815.7
2018-Jun-15 20:30N 37°31' E 025°20'3 5.3
2018-Jun-15 19:59N 37°28' E 025°19'0 0.0
2018-Jun-15 19:29N 37°28' E 025°19'0 0.0
2018-Jun-15 18:59N 37°28' E 025°19'0 0.0
2018-Jun-15 18:26N 37°28' E 025°19'0 0.0
2018-Jun-15 17:59N 37°28' E 025°19'0 0.0
2018-Jun-15 17:26N 37°28' E 025°19'0 0.0
2018-Jun-15 16:59N 37°28' E 025°19'0 0.0
2018-Jun-15 16:29N 37°28' E 025°19'0 0.0
2018-Jun-15 15:59N 37°28' E 025°19'1 1.9
2018-Jun-15 15:28N 37°27' E 025°18'715.2
2018-Jun-15 15:00N 37°29' E 025°10'1015.6
2018-Jun-15 14:23N 37°31' E 024°58'615.4
2018-Jun-15 14:00N 37°32' E 024°51'4514.9
2018-Jun-15 10:58N 37°37' E 023°54'715.0
2018-Jun-15 10:30N 37°39' E 023°45'713.7
2018-Jun-15 10:00N 37°44' E 023°40'714.2
2018-Jun-15 09:30N 37°51' E 023°37'611.9
2018-Jun-15 09:01N 37°56' E 023°38'0 0.4
2018-Jun-15 08:29N 37°56' E 023°38'0 0.0
2018-Jun-15 07:59N 37°56' E 023°38'0 0.0
2018-Jun-15 07:29N 37°56' E 023°38'0 0.0
2018-Jun-15 06:59N 37°56' E 023°38'0 0.0
2018-Jun-15 06:23N 37°56' E 023°38'0 0.0
2018-Jun-15 05:59N 37°56' E 023°38'0 0.0
2018-Jun-15 05:29N 37°56' E 023°38'0 0.0
2018-Jun-15 04:59N 37°56' E 023°38'0 0.0
2018-Jun-15 04:29N 37°56' E 023°38'0 0.0
2018-Jun-15 03:59N 37°56' E 023°38'2 3.5
2018-Jun-15 03:31N 37°55' E 023°37'714.9
2018-Jun-15 03:00N 37°48' E 023°41'815.1
2018-Jun-15 02:30N 37°42' E 023°45'  
2018-Jun-11 21:55N 37°27' E 025°56'614.4
2018-Jun-11 21:31N 37°29' E 025°48'815.0
2018-Jun-11 21:00N 37°29' E 025°39'815.6
2018-Jun-11 20:31N 37°30' E 025°29'814.9
2018-Jun-11 19:57N 37°30' E 025°18'2 4.6
2018-Jun-11 19:29N 37°28' E 025°19'0 0.0
2018-Jun-11 18:59N 37°28' E 025°19'0 0.0
2018-Jun-11 18:26N 37°28' E 025°19'0 0.0
2018-Jun-11 17:59N 37°28' E 025°19'0 0.0
2018-Jun-11 17:29N 37°28' E 025°19'0 0.0
2018-Jun-11 16:59N 37°28' E 025°19'0 0.0
2018-Jun-11 16:29N 37°28' E 025°19'0 0.0
2018-Jun-11 15:59N 37°28' E 025°19'1 1.1
2018-Jun-11 15:30N 37°28' E 025°19'713.7
2018-Jun-11 15:00N 37°29' E 025°10'1014.5
2018-Jun-11 14:19N 37°31' E 024°58'614.4
2018-Jun-11 13:54N 37°32' E 024°51'4613.8
2018-Jun-11 10:34N 37°37' E 023°53'115.0
2018-Jun-11 10:30N 37°37' E 023°52'815.1
2018-Jun-11 10:01N 37°40' E 023°43'815.8
2018-Jun-11 09:31N 37°47' E 023°39'815.2
2018-Jun-11 09:00N 37°54' E 023°37'2 4.2
2018-Jun-11 08:28N 37°56' E 023°38'0 0.0
2018-Jun-11 07:58N 37°56' E 023°38'0 0.0
2018-Jun-11 07:28N 37°56' E 023°38'0 0.0
2018-Jun-11 06:58N 37°56' E 023°38'0 0.0
2018-Jun-11 06:28N 37°56' E 023°38'0 0.0
2018-Jun-11 05:58N 37°56' E 023°38'0 0.0
2018-Jun-11 05:28N 37°56' E 023°38'0 0.0
2018-Jun-11 04:58N 37°56' E 023°38'0 0.0
2018-Jun-11 04:28N 37°56' E 023°38'1 1.2
2018-Jun-11 04:00N 37°56' E 023°37'510.9
2018-Jun-11 03:30N 37°51' E 023°39'714.2
2018-Jun-11 03:00N 37°45' E 023°43'714.2
2018-Jun-11 02:31N 37°39' E 023°48'814.8
2018-Jun-11 02:00N 37°33' E 023°54'96 1.9
2018-Jun-08 22:23N 37°28' E 025°55'  

Dump ship's entire track history